Time;durP1;ratioP1;P1;durP2;ratioP2;P2;SDS_P1;SDS_P2;PMS_P1;PMS_P2;Temp;Humidity;BMP_temperature;BMP_pressure;BME280_temperature;BME280_humidity;BME280_pressure;Samples;Min_cycle;Max_cycle;Signal;HPM_P1;HPM_P2
2023/01/16 00:01:40;;;;;;;8.37;1.43;;;;;;;18.57;53.47;99084.59;5090942;28;20198;-66
2023/01/16 00:04:05;;;;;;;6.77;1.50;;;;;;;18.59;53.81;99088.69;5082069;28;20222;-66
2023/01/16 00:06:31;;;;;;;10.13;2.03;;;;;;;18.57;53.67;99076.03;5073895;28;20172;-66
2023/01/16 00:08:56;;;;;;;5.80;1.50;;;;;;;18.59;53.83;99071.53;5085531;28;20844;-66
2023/01/16 00:11:22;;;;;;;4.77;1.57;;;;;;;18.57;53.72;99079.69;5095608;28;20884;-66
2023/01/16 00:13:47;;;;;;;5.70;1.80;;;;;;;18.56;53.74;99077.25;5090485;28;20178;-66
2023/01/16 00:16:13;;;;;;;8.50;2.30;;;;;;;18.57;54.02;99073.97;5097382;28;20182;-66
2023/01/16 00:18:38;;;;;;;4.17;1.73;;;;;;;18.57;54.12;99064.59;5094410;28;20175;-66
2023/01/16 00:21:04;;;;;;;5.30;1.63;;;;;;;18.59;53.89;99062.97;5097922;28;20182;-66
2023/01/16 00:23:29;;;;;;;8.30;1.77;;;;;;;18.56;54.13;99058.06;5094233;28;20352;-66
2023/01/16 00:25:55;;;;;;;3.43;1.40;;;;;;;18.57;54.02;99044.59;5078227;28;20197;-66
2023/01/16 00:28:20;;;;;;;4.67;1.60;;;;;;;18.55;54.10;99045.00;5056684;28;20174;-66
2023/01/16 00:30:46;;;;;;;4.23;1.27;;;;;;;18.56;54.08;99038.03;5081484;28;20174;-66
2023/01/16 00:33:11;;;;;;;4.70;1.87;;;;;;;18.53;54.11;99030.31;5079249;28;20183;-66
2023/01/16 00:35:37;;;;;;;4.70;1.43;;;;;;;18.54;54.29;99022.53;5075907;28;20495;-66
2023/01/16 00:38:02;;;;;;;5.67;1.47;;;;;;;18.53;54.26;99015.19;5076340;28;20650;-66
2023/01/16 00:40:28;;;;;;;4.33;1.50;;;;;;;18.51;54.36;99009.88;5056958;28;20167;-66
2023/01/16 00:42:53;;;;;;;7.77;1.60;;;;;;;18.50;54.47;98996.00;5077211;28;20207;-66
2023/01/16 00:45:19;;;;;;;2.73;1.30;;;;;;;18.53;54.25;99004.59;5075682;28;20187;-66
2023/01/16 00:47:44;;;;;;;4.10;1.40;;;;;;;18.53;54.35;99000.91;5077405;28;20214;-66
2023/01/16 00:50:10;;;;;;;4.43;1.40;;;;;;;18.53;54.24;98998.88;5076731;28;20245;-66
2023/01/16 00:52:35;;;;;;;6.30;1.43;;;;;;;18.53;54.27;98996.03;5097567;28;20185;-66
2023/01/16 00:55:00;;;;;;;3.77;1.57;;;;;;;18.51;54.48;98995.59;5084805;28;20182;-66
2023/01/16 00:57:26;;;;;;;4.40;1.47;;;;;;;18.55;54.41;98992.72;5078568;28;20607;-66
2023/01/16 00:59:51;;;;;;;4.77;1.50;;;;;;;18.55;54.52;98981.28;5081230;28;20174;-66
2023/01/16 01:02:17;;;;;;;3.47;1.27;;;;;;;18.57;54.68;98979.66;5078367;28;20206;-66
2023/01/16 01:04:42;;;;;;;3.70;1.47;;;;;;;18.55;54.69;98982.13;5078865;28;20609;-66
2023/01/16 01:07:08;;;;;;;5.47;1.80;;;;;;;18.55;54.91;98967.00;5081064;28;20190;-66
2023/01/16 01:09:33;;;;;;;4.00;1.30;;;;;;;18.51;54.87;98963.38;5098355;28;20174;-66
2023/01/16 01:11:59;;;;;;;3.77;1.33;;;;;;;18.52;54.53;98954.34;5080075;28;20193;-66
2023/01/16 01:14:25;;;;;;;3.43;1.30;;;;;;;18.56;54.74;98954.38;5097992;28;20178;-66
2023/01/16 01:16:51;;;;;;;6.20;2.07;;;;;;;18.52;54.75;98956.41;5063051;28;20577;-66
2023/01/16 01:19:16;;;;;;;3.77;1.57;;;;;;;18.51;54.96;98944.16;5078094;28;20429;-66
2023/01/16 01:21:42;;;;;;;3.10;1.50;;;;;;;18.51;55.03;98934.78;5087065;28;20203;-66
2023/01/16 01:24:07;;;;;;;4.80;1.90;;;;;;;18.49;54.97;98929.47;5098065;28;20202;-66
2023/01/16 01:26:33;;;;;;;5.17;1.40;;;;;;;18.47;55.01;98928.25;5098092;28;20602;-66
2023/01/16 01:28:58;;;;;;;5.37;1.63;;;;;;;18.46;54.87;98910.28;5098498;28;20610;-66
2023/01/16 01:31:23;;;;;;;5.73;1.43;;;;;;;18.48;55.11;98902.13;5093600;28;20248;-66
2023/01/16 01:33:49;;;;;;;5.73;1.50;;;;;;;18.50;54.95;98905.38;5080172;28;20229;-66
2023/01/16 01:36:14;;;;;;;4.10;1.40;;;;;;;18.48;54.96;98901.31;5102207;28;20193;-66
2023/01/16 01:38:40;;;;;;;6.63;1.60;;;;;;;18.50;55.10;98899.66;5097559;28;20516;-66
2023/01/16 01:41:05;;;;;;;3.50;1.23;;;;;;;18.49;54.97;98886.59;5092379;28;20183;-66
2023/01/16 01:43:53;;;;;;;5.40;2.00;;;;;;;18.46;54.85;98883.78;5077129;28;20249;-66
2023/01/16 01:46:42;;;;;;;6.07;1.53;;;;;;;18.44;55.02;98871.94;5078071;28;20606;-66
2023/01/16 01:49:40;;;;;;;3.00;1.30;;;;;;;18.46;55.24;98872.34;5059356;28;20866;-66
2023/01/16 01:52:06;;;;;;;4.30;1.40;;;;;;;18.47;55.23;98869.03;5037292;28;20445;-66
2023/01/16 01:54:38;;;;;;;6.60;1.60;;;;;;;18.43;55.27;98856.00;5078672;28;20490;-66
2023/01/16 01:57:08;;;;;;;7.83;1.60;;;;;;;18.45;55.39;98854.38;5059401;28;20169;-66
2023/01/16 01:59:38;;;;;;;3.30;1.37;;;;;;;18.45;54.95;98851.50;5079587;28;20918;-66
2023/01/16 02:02:04;;;;;;;3.83;1.40;;;;;;;18.45;55.32;98847.81;5089569;28;20524;-66
2023/01/16 02:04:32;;;;;;;2.43;1.20;;;;;;;18.42;55.23;98838.03;5072698;28;20454;-66
2023/01/16 02:07:00;;;;;;;3.70;1.03;;;;;;;18.43;55.35;98828.25;5092063;28;20860;-66
2023/01/16 02:09:25;;;;;;;3.30;1.20;;;;;;;18.45;55.14;98825.78;5096055;28;20472;-66
2023/01/16 02:12:00;;;;;;;3.80;1.67;;;;;;;18.39;55.20;98818.88;5079415;28;20409;-66
2023/01/16 02:14:26;;;;;;;2.83;1.30;;;;;;;18.45;55.22;98811.50;5063158;28;20185;-66
2023/01/16 02:20:05;;;;;;;2.77;1.23;;;;;;;18.38;55.64;98794.41;5077440;28;20438;-66
2023/01/16 02:22:52;;;;;;;3.40;1.30;;;;;;;18.38;55.48;98785.84;5087580;28;20461;-66
2023/01/16 02:25:59;;;;;;;3.60;1.37;;;;;;;18.35;55.75;98768.69;5114752;28;20396;-66
2023/01/16 02:28:43;;;;;;;3.33;1.10;;;;;;;18.41;55.44;98770.69;5116635;28;20438;-65
2023/01/16 02:31:39;;;;;;;2.57;1.20;;;;;;;18.37;55.58;98758.47;5110571;28;20417;-66
2023/01/16 02:34:20;;;;;;;2.70;1.10;;;;;;;18.34;55.38;98750.75;5077373;28;20429;-66
2023/01/16 02:37:03;;;;;;;7.60;1.60;;;;;;;18.34;55.67;98742.19;5079231;28;20903;-66
2023/01/16 02:39:38;;;;;;;2.90;1.33;;;;;;;18.37;55.55;98741.34;5083934;28;21165;-66
2023/01/16 02:42:24;;;;;;;5.47;1.17;;;;;;;18.36;55.34;98724.63;5079844;28;20408;-66
2023/01/16 02:45:18;;;;;;;3.83;1.37;;;;;;;18.37;55.43;98714.81;5058882;28;20425;-66
2023/01/16 02:48:08;;;;;;;7.23;1.17;;;;;;;18.39;55.51;98704.59;5046254;28;20476;-66
2023/01/16 02:50:41;;;;;;;3.57;1.30;;;;;;;18.36;55.30;98705.44;5093301;28;20428;-66
2023/01/16 02:53:31;;;;;;;3.90;1.20;;;;;;;18.37;55.46;98694.81;5078428;28;20401;-66
2023/01/16 02:56:02;;;;;;;4.10;1.40;;;;;;;18.33;55.63;98692.00;5082546;28;20516;-66
2023/01/16 02:58:28;;;;;;;4.37;0.97;;;;;;;18.35;55.33;98683.81;5059178;28;20456;-66
2023/01/16 03:00:57;;;;;;;3.37;1.20;;;;;;;18.37;55.82;98678.47;5061074;28;20443;-65
2023/01/16 03:03:49;;;;;;;3.30;1.10;;;;;;;18.34;55.63;98676.47;5065588;28;20186;-66
2023/01/16 03:06:17;;;;;;;3.23;1.10;;;;;;;18.33;55.70;98657.72;5095834;28;20437;-66
2023/01/16 03:09:25;;;;;;;2.40;1.00;;;;;;;18.36;55.43;98654.00;5079737;28;20424;-66
2023/01/16 03:12:12;;;;;;;4.83;1.30;;;;;;;18.31;55.81;98650.75;5049110;28;20490;-66
2023/01/16 03:14:44;;;;;;;3.73;1.27;;;;;;;18.33;55.78;98640.56;5093910;28;20404;-66
2023/01/16 03:17:29;;;;;;;2.50;1.20;;;;;;;18.33;55.90;98632.00;5080014;28;20447;-66
2023/01/16 03:20:13;;;;;;;4.10;1.43;;;;;;;18.29;55.88;98625.47;5050102;28;20987;-66
2023/01/16 03:22:46;;;;;;;2.30;0.93;;;;;;;18.29;55.69;98618.94;5096104;28;20527;-66
2023/01/16 03:25:26;;;;;;;2.93;1.10;;;;;;;18.35;55.56;98611.56;5071960;28;20468;-66
2023/01/16 03:28:08;;;;;;;7.33;1.50;;;;;;;18.33;55.92;98606.28;5073721;28;20455;-66
2023/01/16 03:30:52;;;;;;;3.90;1.27;;;;;;;18.29;55.93;98596.06;5108876;28;20447;-66
2023/01/16 03:33:43;;;;;;;4.00;1.33;;;;;;;18.31;55.56;98587.91;5075711;28;20819;-66
2023/01/16 03:36:15;;;;;;;4.40;1.60;;;;;;;18.28;55.83;98583.03;5058484;28;20414;-66
2023/01/16 03:38:42;;;;;;;4.70;0.90;;;;;;;18.28;55.83;98571.59;5060789;28;20966;-66
2023/01/16 03:41:09;;;;;;;2.03;1.07;;;;;;;18.29;55.80;98550.38;5057788;28;20417;-66
2023/01/16 03:43:35;;;;;;;4.57;1.30;;;;;;;18.26;55.88;98537.75;5043432;28;20483;-66
2023/01/16 03:46:09;;;;;;;3.17;0.87;;;;;;;18.28;55.64;98532.44;5078147;28;20437;-66
2023/01/16 03:48:47;;;;;;;3.27;1.30;;;;;;;18.28;55.92;98531.63;5057509;28;20985;-66
2023/01/16 03:51:19;;;;;;;4.00;1.27;;;;;;;18.27;55.90;98518.56;5060783;28;20413;-66
2023/01/16 03:53:47;;;;;;;4.80;1.30;;;;;;;18.26;55.80;98520.59;5056151;28;20903;-66
2023/01/16 03:56:24;;;;;;;5.27;1.30;;;;;;;18.27;55.87;98516.50;5070391;28;20428;-66
2023/01/16 03:58:49;;;;;;;2.10;0.90;;;;;;;18.29;55.82;98505.50;5055922;28;20864;-66
2023/01/16 04:01:36;;;;;;;3.00;1.10;;;;;;;18.23;56.02;98490.03;5076990;28;20433;-66
2023/01/16 04:04:12;;;;;;;4.07;1.00;;;;;;;18.24;55.77;98476.56;5075042;28;20198;-66
2023/01/16 04:06:52;;;;;;;2.17;0.90;;;;;;;18.23;55.70;98472.91;5064294;28;20441;-65
2023/01/16 04:09:37;;;;;;;3.03;1.03;;;;;;;18.24;55.78;98457.38;5054529;28;20925;-66
2023/01/16 04:12:03;;;;;;;2.60;0.80;;;;;;;18.23;55.85;98452.91;5058738;28;20433;-66
2023/01/16 04:14:29;;;;;;;2.13;1.23;;;;;;;18.23;55.89;98437.81;5056423;28;20413;-66
2023/01/16 04:16:54;;;;;;;2.73;1.00;;;;;;;18.22;55.95;98422.69;5059956;28;20186;-66
2023/01/16 04:19:20;;;;;;;2.03;1.07;;;;;;;18.26;55.84;98414.91;5080530;28;20183;-66
2023/01/16 04:21:45;;;;;;;2.97;0.97;;;;;;;18.21;56.08;98406.81;5087350;28;20185;-66
2023/01/16 04:24:11;;;;;;;5.07;1.30;;;;;;;18.21;55.86;98395.38;5071271;28;20420;-66
2023/01/16 04:26:36;;;;;;;2.13;0.90;;;;;;;18.24;55.91;98388.00;5079655;28;20171;-66
2023/01/16 04:29:01;;;;;;;2.47;0.90;;;;;;;18.22;56.10;98382.72;5080021;28;20175;-66
2023/01/16 04:31:28;;;;;;;2.47;1.00;;;;;;;18.26;56.21;98379.84;5082311;28;20183;-66
2023/01/16 04:33:53;;;;;;;2.30;1.00;;;;;;;18.23;55.95;98364.38;5101084;28;20181;-66
2023/01/16 04:36:19;;;;;;;3.97;1.07;;;;;;;18.22;55.77;98351.31;5120497;28;20392;-66
2023/01/16 04:38:44;;;;;;;8.20;1.20;;;;;;;18.22;56.02;98345.59;5115413;28;20208;-66
2023/01/16 04:41:10;;;;;;;2.70;1.17;;;;;;;18.21;56.07;98323.97;5081497;28;20232;-66
2023/01/16 04:43:35;;;;;;;4.10;1.47;;;;;;;18.21;55.97;98314.63;5092732;28;20203;-66
2023/01/16 04:46:00;;;;;;;1.70;0.90;;;;;;;18.25;55.92;98316.19;5099904;28;20236;-66
2023/01/16 04:48:26;;;;;;;1.80;0.87;;;;;;;18.23;56.11;98309.28;5097655;28;20258;-66
2023/01/16 04:50:51;;;;;;;3.83;1.10;;;;;;;18.23;55.70;98297.84;5085779;28;20183;-66
2023/01/16 04:53:17;;;;;;;2.10;1.00;;;;;;;18.21;55.80;98284.00;5099974;28;20170;-66
2023/01/16 04:55:42;;;;;;;2.17;0.83;;;;;;;18.17;56.17;98283.22;5100234;28;20534;-66
2023/01/16 04:58:08;;;;;;;5.50;1.23;;;;;;;18.19;56.11;98271.38;5097377;28;20178;-66
2023/01/16 05:00:33;;;;;;;2.50;0.93;;;;;;;18.22;55.83;98265.63;5100868;28;20182;-66
2023/01/16 05:02:59;;;;;;;3.30;1.00;;;;;;;18.19;55.89;98260.78;5101130;28;20195;-66
2023/01/16 05:05:24;;;;;;;3.43;1.10;;;;;;;18.26;55.82;98248.47;5084252;28;20686;-66
2023/01/16 05:08:15;;;;;;;2.10;1.00;;;;;;;18.23;56.11;98241.56;5063238;28;20181;-66
2023/01/16 05:10:35;;;;;;;2.00;1.00;;;;;;;18.18;56.06;98230.59;5083956;28;20343;-66
2023/01/16 05:13:00;;;;;;;1.93;0.80;;;;;;;18.19;56.11;98219.97;5081697;28;20409;-66
2023/01/16 05:15:26;;;;;;;3.63;1.10;;;;;;;18.23;56.09;98212.19;5082376;28;20202;-66
2023/01/16 05:17:52;;;;;;;1.93;1.03;;;;;;;18.19;56.16;98203.66;5082347;28;20197;-66
2023/01/16 05:20:18;;;;;;;2.80;1.00;;;;;;;18.22;55.76;98190.56;5094558;28;20193;-66
2023/01/16 05:22:43;;;;;;;4.10;1.10;;;;;;;18.20;56.24;98181.59;5089999;28;20469;-66
2023/01/16 05:25:09;;;;;;;2.90;0.90;;;;;;;18.20;56.37;98168.16;5081754;28;20160;-66
2023/01/16 05:27:34;;;;;;;4.13;1.00;;;;;;;18.24;56.09;98154.63;5081901;28;20170;-66
2023/01/16 05:29:59;;;;;;;1.90;0.90;;;;;;;18.22;56.18;98145.66;5098957;28;20174;-66
2023/01/16 05:32:25;;;;;;;3.00;1.03;;;;;;;18.21;55.70;98134.69;5099288;28;20618;-66
2023/01/16 05:34:50;;;;;;;4.13;1.03;;;;;;;18.21;55.81;98132.63;5102236;28;20628;-66
2023/01/16 05:37:16;;;;;;;1.90;0.90;;;;;;;18.20;55.92;98125.31;5118204;28;20174;-66
2023/01/16 05:39:41;;;;;;;3.40;1.27;;;;;;;18.23;56.24;98118.75;5117400;28;20183;-66
2023/01/16 05:42:20;;;;;;;3.57;0.93;;;;;;;18.24;56.06;98113.81;5064942;28;20179;-66
2023/01/16 05:44:47;;;;;;;2.57;1.20;;;;;;;18.22;56.06;98099.97;5065834;28;20155;-66
2023/01/16 05:47:13;;;;;;;2.40;0.80;;;;;;;18.22;56.03;98087.75;5096283;28;20910;-66
2023/01/16 05:49:38;;;;;;;2.20;1.00;;;;;;;18.21;55.82;98086.16;5103351;28;20401;-66
2023/01/16 05:52:04;;;;;;;2.27;0.70;;;;;;;18.22;56.09;98071.41;5078964;28;20194;-66
2023/01/16 05:54:29;;;;;;;2.77;1.17;;;;;;;18.21;56.00;98052.66;5066771;28;20187;-66
2023/01/16 05:56:54;;;;;;;3.30;1.07;;;;;;;18.22;56.10;98054.28;5103336;28;20174;-66
2023/01/16 05:59:20;;;;;;;2.30;0.87;;;;;;;18.23;55.92;98046.53;5101507;28;20243;-66
2023/01/16 06:01:45;;;;;;;2.50;0.90;;;;;;;18.20;55.78;98027.38;5098762;28;20182;-66
2023/01/16 06:04:11;;;;;;;2.03;0.80;;;;;;;18.24;55.70;98031.81;5090013;28;20207;-66
2023/01/16 06:06:36;;;;;;;1.97;0.90;;;;;;;18.21;55.98;98024.09;5082544;28;20630;-66
2023/01/16 06:09:02;;;;;;;2.43;0.87;;;;;;;18.25;55.63;98018.31;5101249;28;20185;-66
2023/01/16 06:11:27;;;;;;;1.90;0.93;;;;;;;18.24;55.69;98023.25;5101880;28;20249;-66
2023/01/16 06:13:53;;;;;;;2.47;1.20;;;;;;;18.22;55.92;98011.44;5102444;28;20228;-66
2023/01/16 06:16:18;;;;;;;2.83;0.83;;;;;;;18.23;55.73;98003.69;5099899;28;20235;-66
2023/01/16 06:18:43;;;;;;;3.73;1.20;;;;;;;18.22;56.19;97996.38;5102546;28;20175;-66
2023/01/16 06:21:09;;;;;;;1.90;0.83;;;;;;;18.23;55.94;97987.38;5102279;28;20189;-66
2023/01/16 06:23:34;;;;;;;5.10;1.27;;;;;;;18.23;55.85;97972.28;5102245;28;20186;-66
2023/01/16 06:26:01;;;;;;;2.27;0.93;;;;;;;18.24;55.66;97966.13;5099942;28;20189;-66
2023/01/16 06:28:26;;;;;;;1.90;0.83;;;;;;;18.23;55.68;97961.66;5124036;28;20210;-66
2023/01/16 06:30:52;;;;;;;1.77;0.90;;;;;;;18.26;56.06;97957.13;5122914;28;20851;-66
2023/01/16 06:33:17;;;;;;;3.17;1.03;;;;;;;18.24;55.76;97948.16;5103294;28;20173;-66
2023/01/16 06:35:43;;;;;;;3.90;1.10;;;;;;;18.23;55.67;97940.84;5093568;28;20201;-66
2023/01/16 06:38:08;;;;;;;2.40;1.07;;;;;;;18.22;55.76;97934.31;5081939;28;20159;-66
2023/01/16 06:40:34;;;;;;;2.43;1.03;;;;;;;18.24;55.66;97931.03;5090951;28;20175;-66
2023/01/16 06:42:59;;;;;;;1.60;0.70;;;;;;;18.23;55.68;97920.88;5101481;28;20190;-66
2023/01/16 06:45:25;;;;;;;1.80;0.67;;;;;;;18.21;55.70;97918.44;5099122;28;20186;-66
2023/01/16 06:47:51;;;;;;;2.17;0.83;;;;;;;18.23;55.94;97907.41;5080079;28;20242;-66
2023/01/16 06:50:17;;;;;;;2.33;1.00;;;;;;;18.26;55.93;97908.56;5080326;28;20192;-66
2023/01/16 06:52:42;;;;;;;3.03;1.00;;;;;;;18.22;55.85;97905.75;5101287;28;20779;-66
2023/01/16 06:55:08;;;;;;;3.60;1.20;;;;;;;18.22;55.76;97905.75;5080107;28;20170;-66
2023/01/16 06:57:35;;;;;;;2.00;0.87;;;;;;;18.26;55.77;97906.50;5080892;28;20176;-66
2023/01/16 07:00:01;;;;;;;4.00;0.90;;;;;;;18.24;55.46;97906.16;5081217;28;20159;-66
2023/01/16 07:02:27;;;;;;;2.47;0.90;;;;;;;18.26;55.66;97886.50;5083811;28;20469;-66
2023/01/16 07:04:52;;;;;;;3.50;0.90;;;;;;;18.26;55.70;97885.72;5081623;28;20453;-66
2023/01/16 07:07:18;;;;;;;3.77;1.10;;;;;;;18.23;55.69;97884.56;5090970;28;20204;-65
2023/01/16 07:09:45;;;;;;;2.37;0.90;;;;;;;18.26;55.68;97883.66;5097768;28;20208;-66
2023/01/16 07:12:10;;;;;;;2.50;1.10;;;;;;;18.29;55.75;97874.22;5082402;28;20183;-66
2023/01/16 07:22:48;;;;;;;1.50;0.70;;;;;;;18.23;55.69;97844.56;5081725;28;20494;-66
2023/01/16 07:25:21;;;;;;;2.33;1.00;;;;;;;18.22;55.88;97840.09;5084330;28;20429;-66
2023/01/16 07:27:47;;;;;;;1.87;0.80;;;;;;;18.28;55.54;97837.53;5082431;28;20610;-66
2023/01/16 07:30:13;;;;;;;2.63;1.13;;;;;;;18.26;55.85;97823.69;5099832;28;20465;-66
2023/01/16 07:32:39;;;;;;;2.00;0.70;;;;;;;18.25;55.94;97821.25;5059140;28;20522;-66
2023/01/16 07:35:05;;;;;;;1.60;0.70;;;;;;;18.23;55.66;97821.72;5080206;28;20151;-66
2023/01/16 07:37:31;;;;;;;1.97;1.00;;;;;;;18.28;55.80;97814.69;5081872;28;20213;-66
2023/01/16 07:39:56;;;;;;;3.30;1.10;;;;;;;18.29;55.72;97814.25;5117977;28;20423;-66
2023/01/16 07:42:21;;;;;;;2.10;0.80;;;;;;;18.28;55.73;97812.66;5076888;28;20240;-66
2023/01/16 07:44:47;;;;;;;3.30;1.00;;;;;;;18.28;55.74;97809.78;5079535;28;20179;-66
2023/01/16 07:47:12;;;;;;;2.27;1.00;;;;;;;18.28;55.83;97803.25;5093018;28;20589;-66
2023/01/16 07:49:38;;;;;;;2.90;1.30;;;;;;;18.23;55.77;97790.31;5087322;28;20198;-66
2023/01/16 07:52:03;;;;;;;3.30;1.10;;;;;;;18.25;55.61;97778.44;5092395;28;20174;-66
2023/01/16 07:54:29;;;;;;;1.93;0.80;;;;;;;18.25;55.97;97778.44;5080090;28;20623;-66
2023/01/16 07:56:54;;;;;;;1.90;0.87;;;;;;;18.26;55.98;97775.13;5098858;28;20182;-66
2023/01/16 07:59:20;;;;;;;2.00;0.90;;;;;;;18.23;55.75;97773.19;5095868;28;20174;-66
2023/01/16 08:01:47;;;;;;;4.80;0.90;;;;;;;18.22;55.83;97768.69;5084843;28;20265;-66
2023/01/16 08:04:12;;;;;;;1.70;0.93;;;;;;;18.26;56.05;97760.84;5080193;28;20207;-66
2023/01/16 08:06:44;;;;;;;2.53;1.00;;;;;;;18.27;55.86;97751.03;5077689;28;20476;-66
2023/01/16 08:09:09;;;;;;;3.57;1.00;;;;;;;18.23;55.99;97741.75;5076259;28;20457;-66
2023/01/16 08:11:35;;;;;;;3.30;0.97;;;;;;;18.29;55.96;97748.56;5080149;28;20413;-66
2023/01/16 08:14:01;;;;;;;2.40;1.30;;;;;;;18.28;56.01;97740.44;5076377;28;20167;-66
2023/01/16 08:16:26;;;;;;;2.23;1.10;;;;;;;18.29;55.79;97731.44;5078830;28;20194;-66
2023/01/16 08:18:53;;;;;;;2.30;0.90;;;;;;;18.29;55.74;97728.56;5076154;28;20170;-66
2023/01/16 08:21:18;;;;;;;2.57;0.80;;;;;;;18.30;55.58;97721.59;5084596;28;20178;-66
2023/01/16 08:23:44;;;;;;;1.87;0.93;;;;;;;18.26;55.84;97718.00;5094924;28;20479;-66
2023/01/16 08:26:10;;;;;;;1.50;0.90;;;;;;;18.28;55.88;97712.69;5113307;28;20173;-66
2023/01/16 08:28:35;;;;;;;3.10;1.10;;;;;;;18.27;55.73;97702.47;5117798;28;20257;-66
2023/01/16 08:31:11;;;;;;;2.00;1.20;;;;;;;18.28;55.80;97701.25;5109367;28;20239;-66
2023/01/16 08:33:40;;;;;;;2.90;0.83;;;;;;;18.30;55.81;97697.94;5077571;28;20269;-66
2023/01/16 08:36:06;;;;;;;1.80;0.70;;;;;;;18.32;55.55;97702.00;5077925;28;20429;-66
2023/01/16 08:38:32;;;;;;;2.57;1.07;;;;;;;18.29;55.64;97696.34;5076711;28;20466;-66
2023/01/16 08:40:57;;;;;;;3.60;0.93;;;;;;;18.31;55.71;97693.88;5097557;28;20412;-66
2023/01/16 08:51:53;;;;;;;1.80;0.80;;;;;;;18.35;55.47;97683.97;5037895;28;20468;-66
2023/01/16 08:54:18;;;;;;;3.43;1.30;;;;;;;18.33;55.79;97672.22;4994489;28;20457;-66
2023/01/16 08:56:44;;;;;;;3.47;1.00;;;;;;;18.29;55.49;97662.88;5061980;28;20637;-66
2023/01/16 08:59:12;;;;;;;1.83;0.80;;;;;;;18.30;55.61;97678.75;4982804;28;20183;-66
2023/01/16 09:01:38;;;;;;;1.60;0.90;;;;;;;18.28;55.87;97652.72;5044539;28;20202;-66
2023/01/16 09:04:04;;;;;;;2.23;0.70;;;;;;;18.30;55.72;97644.50;5041465;28;20448;-66
2023/01/16 09:06:30;;;;;;;1.87;0.80;;;;;;;18.31;55.58;97651.03;5061586;28;20186;-66
2023/01/16 09:08:55;;;;;;;3.43;1.17;;;;;;;18.31;55.69;97633.88;4976566;28;20436;-66
2023/01/16 09:14:05;;;;;;;1.87;0.83;;;;;;;18.31;55.76;97634.66;4985377;28;20327;-66
2023/01/16 09:16:30;;;;;;;2.00;0.80;;;;;;;18.27;55.76;97648.22;5046359;28;20870;-66
2023/01/16 09:18:55;;;;;;;1.80;0.87;;;;;;;18.30;55.45;97630.22;4980465;28;20216;-66
2023/01/16 09:21:23;;;;;;;3.17;0.97;;;;;;;18.28;55.85;97629.88;4986949;28;20720;-66
2023/01/16 09:23:49;;;;;;;1.93;0.90;;;;;;;18.29;55.76;97636.38;4997732;28;20198;-66
2023/01/16 09:26:14;;;;;;;2.70;0.90;;;;;;;18.28;55.67;97631.91;4982668;28;20794;-66
2023/01/16 09:28:40;;;;;;;2.20;1.17;;;;;;;18.33;55.50;97609.38;4978663;28;20163;-66
2023/01/16 09:31:06;;;;;;;1.80;0.80;;;;;;;18.31;55.78;97616.75;4981971;28;20202;-66
2023/01/16 09:33:31;;;;;;;1.93;0.93;;;;;;;18.30;55.50;97613.06;4978899;28;20160;-66
2023/01/16 09:35:56;;;;;;;2.80;1.07;;;;;;;18.31;55.77;97633.88;4978882;28;20183;-66
2023/01/16 09:38:22;;;;;;;2.50;0.90;;;;;;;18.35;55.44;97629.72;4982346;28;20209;-66
2023/01/16 09:40:51;;;;;;;3.00;0.97;;;;;;;18.33;55.54;97623.66;4981388;28;20190;-66
2023/01/16 09:43:38;;;;;;;1.70;0.70;;;;;;;18.33;55.49;97619.97;4979699;28;20191;-66
2023/01/16 09:46:12;;;;;;;2.40;0.90;;;;;;;18.34;55.65;97613.84;5034820;28;20432;-66
2023/01/16 09:49:04;;;;;;;4.90;1.23;;;;;;;18.34;55.46;97619.53;5065753;28;20460;-66
2023/01/16 09:51:39;;;;;;;1.90;0.73;;;;;;;18.31;55.76;97608.97;5063716;28;20453;-66
2023/01/16 09:59:54;;;;;;;4.03;0.93;;;;;;;18.36;55.43;97599.91;5032699;28;20402;-66
2023/01/16 10:02:25;;;;;;;1.27;0.53;;;;;;;18.35;55.75;97598.28;5043672;28;20422;-66
2023/01/16 10:04:51;;;;;;;1.90;1.03;;;;;;;18.35;55.42;97578.31;5079254;28;20452;-66
2023/01/16 10:07:38;;;;;;;2.23;1.23;;;;;;;18.36;55.75;97590.53;5078729;28;20437;-66
2023/01/16 10:10:27;;;;;;;2.80;0.90;;;;;;;18.37;55.34;97592.16;5060922;28;20187;-65
2023/01/16 10:13:14;;;;;;;3.80;1.00;;;;;;;18.34;55.49;97579.56;5043038;28;20438;-66
2023/01/16 10:15:49;;;;;;;1.50;0.70;;;;;;;18.34;55.39;97553.84;5043497;28;20459;-66
2023/01/16 10:18:21;;;;;;;6.33;0.80;;;;;;;18.32;55.69;97564.91;5045468;28;20983;-66
2023/01/16 10:20:56;;;;;;;3.00;1.17;;;;;;;18.36;55.55;97567.69;5063738;28;20432;-65
2023/01/16 10:23:39;;;;;;;2.00;0.90;;;;;;;18.42;55.57;97569.53;5079652;28;20487;-66
2023/01/16 10:26:18;;;;;;;2.13;0.97;;;;;;;18.35;55.57;97572.59;5069146;28;20437;-66
2023/01/16 10:29:15;;;;;;;3.60;0.90;;;;;;;18.41;55.48;97547.94;5060126;28;20476;-66
2023/01/16 10:31:45;;;;;;;2.47;1.00;;;;;;;18.40;55.13;97568.38;5066295;28;20476;-66
2023/01/16 10:34:22;;;;;;;2.53;0.80;;;;;;;18.37;55.53;97561.50;5034494;28;20413;-66
2023/01/16 10:36:50;;;;;;;3.33;0.90;;;;;;;18.35;55.42;97564.03;5095974;28;20473;-66
2023/01/16 10:39:16;;;;;;;4.83;0.80;;;;;;;18.35;55.58;97563.19;5062238;28;20727;-66
2023/01/16 10:50:12;;;;;;;2.37;1.00;;;;;;;18.38;55.32;97528.88;5063242;28;20882;-66
2023/01/16 10:52:38;;;;;;;2.00;0.80;;;;;;;18.36;55.27;97517.06;5077882;28;20432;-66
2023/01/16 10:55:04;;;;;;;4.63;1.10;;;;;;;18.40;55.30;97500.66;5079876;28;20167;-66
2023/01/16 10:57:29;;;;;;;2.57;0.80;;;;;;;18.38;55.41;97497.44;5069920;28;20179;-66
2023/01/16 11:00:07;;;;;;;2.30;1.10;;;;;;;18.38;55.48;97496.63;5076259;28;20584;-66
2023/01/16 11:02:41;;;;;;;1.60;0.77;;;;;;;18.38;55.68;97490.91;5066350;28;20197;-66
2023/01/16 11:05:31;;;;;;;2.63;0.83;;;;;;;18.36;55.61;97482.78;5064281;28;20556;-66
2023/01/16 11:08:12;;;;;;;2.93;1.00;;;;;;;18.40;55.36;97474.94;5077391;28;20413;-65
2023/01/16 11:10:38;;;;;;;2.10;0.90;;;;;;;18.38;55.27;97468.06;5078166;28;20421;-66
2023/01/16 11:19:20;;;;;;;4.47;1.03;;;;;;;18.39;55.73;97429.69;5079226;28;20397;-66
2023/01/16 11:21:58;;;;;;;1.90;0.87;;;;;;;18.41;55.36;97427.97;5053490;28;20432;-65
2023/01/16 11:24:30;;;;;;;6.00;1.20;;;;;;;18.37;55.50;97412.97;5081343;28;20464;-65
2023/01/16 11:26:55;;;;;;;2.93;0.90;;;;;;;18.41;55.21;97410.06;5077138;28;20409;-65
2023/01/16 11:29:25;;;;;;;3.50;0.90;;;;;;;18.40;55.34;97403.53;5043924;28;20506;-65
2023/01/16 11:31:54;;;;;;;5.03;1.60;;;;;;;18.39;55.85;97401.13;5098084;28;20186;-65
2023/01/16 11:34:21;;;;;;;2.53;0.87;;;;;;;18.41;55.46;97392.91;5060913;28;20476;-65
2023/01/16 11:36:46;;;;;;;2.23;0.70;;;;;;;18.39;55.63;97393.38;5062197;28;20427;-65
2023/01/16 11:39:21;;;;;;;3.60;1.10;;;;;;;18.42;55.34;97389.59;5044324;28;20421;-65
2023/01/16 11:41:48;;;;;;;2.20;0.97;;;;;;;18.37;55.53;97384.41;5077206;28;20677;-65
2023/01/16 11:47:04;;;;;;;7.33;1.20;;;;;;;18.41;55.20;97364.34;5076595;28;20429;-65
2023/01/16 11:49:35;;;;;;;2.43;0.90;;;;;;;18.39;55.70;97338.28;5079318;28;20436;-65
2023/01/16 11:52:03;;;;;;;2.50;1.10;;;;;;;18.40;55.49;97340.69;5098931;28;20799;-65
2023/01/16 11:54:31;;;;;;;5.47;0.90;;;;;;;18.39;55.77;97339.09;5078359;28;20462;-65
2023/01/16 11:56:57;;;;;;;4.43;1.20;;;;;;;18.42;55.57;97343.09;5058266;28;20424;-65
2023/01/16 11:59:43;;;;;;;5.90;0.90;;;;;;;18.41;55.65;97324.38;5096127;28;20538;-65
2023/01/16 12:02:21;;;;;;;2.17;0.90;;;;;;;18.41;55.60;97330.88;5089557;28;20183;-65
2023/01/16 12:08:37;;;;;;;3.77;1.97;;;;;;;18.47;55.39;97316.84;5072341;28;20474;-65
2023/01/16 12:11:13;;;;;;;3.40;1.23;;;;;;;18.44;55.24;97309.97;5064807;28;20432;-65
2023/01/16 12:16:31;;;;;;;2.60;1.00;;;;;;;18.46;54.80;97304.59;5063253;28;21273;-65
2023/01/16 12:19:20;;;;;;;2.97;1.17;;;;;;;18.42;55.59;97291.69;5077097;28;20425;-65
2023/01/16 12:21:48;;;;;;;2.30;0.97;;;;;;;18.45;56.09;97285.88;5097323;28;20423;-64
2023/01/16 12:24:29;;;;;;;3.37;1.07;;;;;;;18.43;55.27;97279.00;5110739;28;20506;-64
2023/01/16 12:27:25;;;;;;;5.17;1.20;;;;;;;18.43;55.56;97273.28;5055876;28;20429;-64
2023/01/16 12:30:06;;;;;;;6.23;0.80;;;;;;;18.41;55.55;97258.66;5081170;28;20401;-64
2023/01/16 12:32:59;;;;;;;3.47;1.00;;;;;;;18.44;55.32;97243.47;5074056;28;20470;-64
2023/01/16 12:35:30;;;;;;;1.50;0.77;;;;;;;18.50;55.26;97245.31;5070817;28;20743;-64
2023/01/16 12:38:11;;;;;;;3.60;1.10;;;;;;;18.44;55.25;97235.72;5082886;28;20454;-64
2023/01/16 12:43:17;;;;;;;2.47;1.00;;;;;;;18.47;55.84;97240.50;5094606;28;20419;-64